sensor_id;sensor_type;location;lat;lon;timestamp;temperature;humidity
29185;DHT22;16233;47.964;-3.842;2022-11-20T00:00:36;9.90;99.90
29185;DHT22;16233;47.964;-3.842;2022-11-20T00:02:37;9.90;99.90
29185;DHT22;16233;47.964;-3.842;2022-11-20T00:04:38;9.90;99.90
29185;DHT22;16233;47.964;-3.842;2022-11-20T00:06:41;10.00;99.90
29185;DHT22;16233;47.964;-3.842;2022-11-20T00:08:42;10.00;99.90
29185;DHT22;16233;47.964;-3.842;2022-11-20T00:10:43;10.00;99.90
29185;DHT22;16233;47.964;-3.842;2022-11-20T00:12:44;10.00;99.90
29185;DHT22;16233;47.964;-3.842;2022-11-20T00:14:45;10.00;99.90
29185;DHT22;16233;47.964;-3.842;2022-11-20T00:16:46;10.00;99.90
29185;DHT22;16233;47.964;-3.842;2022-11-20T00:18:48;10.00;99.90
29185;DHT22;16233;47.964;-3.842;2022-11-20T00:20:49;10.00;99.90
29185;DHT22;16233;47.964;-3.842;2022-11-20T00:22:52;10.00;99.90
29185;DHT22;16233;47.964;-3.842;2022-11-20T00:24:53;10.00;99.90
29185;DHT22;16233;47.964;-3.842;2022-11-20T00:26:54;10.00;99.90
29185;DHT22;16233;47.964;-3.842;2022-11-20T00:28:56;10.00;99.90
29185;DHT22;16233;47.964;-3.842;2022-11-20T00:31:01;10.00;99.90
29185;DHT22;16233;47.964;-3.842;2022-11-20T00:33:03;10.00;99.90
29185;DHT22;16233;47.964;-3.842;2022-11-20T00:35:04;10.10;99.90
29185;DHT22;16233;47.964;-3.842;2022-11-20T00:37:05;10.00;99.90
29185;DHT22;16233;47.964;-3.842;2022-11-20T00:39:08;10.10;99.90
29185;DHT22;16233;47.964;-3.842;2022-11-20T00:41:10;10.10;99.90
29185;DHT22;16233;47.964;-3.842;2022-11-20T00:43:11;10.10;99.90
29185;DHT22;16233;47.964;-3.842;2022-11-20T00:45:12;10.10;99.90
29185;DHT22;16233;47.964;-3.842;2022-11-20T00:47:13;10.10;99.90
29185;DHT22;16233;47.964;-3.842;2022-11-20T00:49:14;10.20;99.90
29185;DHT22;16233;47.964;-3.842;2022-11-20T00:51:17;10.20;99.90
29185;DHT22;16233;47.964;-3.842;2022-11-20T00:53:18;10.20;99.90
29185;DHT22;16233;47.964;-3.842;2022-11-20T00:55:21;10.20;99.90
29185;DHT22;16233;47.964;-3.842;2022-11-20T00:57:22;10.20;99.90
29185;DHT22;16233;47.964;-3.842;2022-11-20T00:59:23;10.30;99.90
29185;DHT22;16233;47.964;-3.842;2022-11-20T01:01:25;10.30;99.90
29185;DHT22;16233;47.964;-3.842;2022-11-20T01:03:26;10.30;99.90
29185;DHT22;16233;47.964;-3.842;2022-11-20T01:05:27;10.30;99.90
29185;DHT22;16233;47.964;-3.842;2022-11-20T01:07:28;10.30;99.90
29185;DHT22;16233;47.964;-3.842;2022-11-20T01:09:29;10.30;99.90
29185;DHT22;16233;47.964;-3.842;2022-11-20T01:11:34;10.40;99.90
29185;DHT22;16233;47.964;-3.842;2022-11-20T01:13:35;10.40;99.90
29185;DHT22;16233;47.964;-3.842;2022-11-20T01:15:37;10.40;99.90
29185;DHT22;16233;47.964;-3.842;2022-11-20T01:17:38;10.50;99.90
29185;DHT22;16233;47.964;-3.842;2022-11-20T01:19:39;10.50;99.90
29185;DHT22;16233;47.964;-3.842;2022-11-20T01:21:42;10.50;99.90
29185;DHT22;16233;47.964;-3.842;2022-11-20T01:23:43;10.50;99.90
29185;DHT22;16233;47.964;-3.842;2022-11-20T01:25:46;10.60;99.90
29185;DHT22;16233;47.964;-3.842;2022-11-20T01:27:48;10.60;99.90
29185;DHT22;16233;47.964;-3.842;2022-11-20T01:29:49;10.60;99.90
29185;DHT22;16233;47.964;-3.842;2022-11-20T01:31:51;10.70;99.90
29185;DHT22;16233;47.964;-3.842;2022-11-20T01:33:54;10.70;99.90
29185;DHT22;16233;47.964;-3.842;2022-11-20T01:36:03;10.70;99.90
29185;DHT22;16233;47.964;-3.842;2022-11-20T01:38:04;10.80;99.90
29185;DHT22;16233;47.964;-3.842;2022-11-20T01:40:06;10.80;99.90
29185;DHT22;16233;47.964;-3.842;2022-11-20T01:42:09;10.80;99.90
29185;DHT22;16233;47.964;-3.842;2022-11-20T01:44:14;10.80;99.90
29185;DHT22;16233;47.964;-3.842;2022-11-20T01:46:16;10.90;99.90
29185;DHT22;16233;47.964;-3.842;2022-11-20T01:48:19;10.90;99.90
29185;DHT22;16233;47.964;-3.842;2022-11-20T01:50:23;11.00;99.90
29185;DHT22;16233;47.964;-3.842;2022-11-20T01:52:29;11.00;99.90
29185;DHT22;16233;47.964;-3.842;2022-11-20T01:54:40;11.00;99.90
29185;DHT22;16233;47.964;-3.842;2022-11-20T01:56:46;11.10;99.90
29185;DHT22;16233;47.964;-3.842;2022-11-20T01:58:51;11.10;99.90
29185;DHT22;16233;47.964;-3.842;2022-11-20T02:00:54;11.20;99.90
29185;DHT22;16233;47.964;-3.842;2022-11-20T02:02:58;11.20;99.90
29185;DHT22;16233;47.964;-3.842;2022-11-20T02:05:09;11.30;99.90
29185;DHT22;16233;47.964;-3.842;2022-11-20T02:07:13;11.40;99.90
29185;DHT22;16233;47.964;-3.842;2022-11-20T02:09:14;11.40;99.90
29185;DHT22;16233;47.964;-3.842;2022-11-20T02:11:15;11.40;99.90
29185;DHT22;16233;47.964;-3.842;2022-11-20T02:13:17;11.50;99.90
29185;DHT22;16233;47.964;-3.842;2022-11-20T02:15:18;11.50;99.90
29185;DHT22;16233;47.964;-3.842;2022-11-20T02:17:21;11.60;99.90
29185;DHT22;16233;47.964;-3.842;2022-11-20T02:19:24;11.60;99.90
29185;DHT22;16233;47.964;-3.842;2022-11-20T02:21:35;11.70;99.90
29185;DHT22;16233;47.964;-3.842;2022-11-20T02:23:39;11.70;99.90
29185;DHT22;16233;47.964;-3.842;2022-11-20T02:25:48;11.70;99.90
29185;DHT22;16233;47.964;-3.842;2022-11-20T02:27:50;11.80;99.90
29185;DHT22;16233;47.964;-3.842;2022-11-20T02:29:53;11.70;99.90
29185;DHT22;16233;47.964;-3.842;2022-11-20T02:31:56;11.80;99.90
29185;DHT22;16233;47.964;-3.842;2022-11-20T02:33:58;11.80;99.90
29185;DHT22;16233;47.964;-3.842;2022-11-20T02:35:59;11.80;99.90
29185;DHT22;16233;47.964;-3.842;2022-11-20T02:38:02;11.90;99.90
29185;DHT22;16233;47.964;-3.842;2022-11-20T02:40:04;11.90;99.90
29185;DHT22;16233;47.964;-3.842;2022-11-20T02:42:07;11.90;99.90
29185;DHT22;16233;47.964;-3.842;2022-11-20T02:44:08;11.90;99.90
29185;DHT22;16233;47.964;-3.842;2022-11-20T02:46:09;11.90;99.90
29185;DHT22;16233;47.964;-3.842;2022-11-20T02:48:10;11.90;99.90
29185;DHT22;16233;47.964;-3.842;2022-11-20T02:50:12;11.90;99.90
29185;DHT22;16233;47.964;-3.842;2022-11-20T02:52:13;11.90;99.90
29185;DHT22;16233;47.964;-3.842;2022-11-20T02:54:14;12.00;99.90
29185;DHT22;16233;47.964;-3.842;2022-11-20T02:56:15;11.90;99.90
29185;DHT22;16233;47.964;-3.842;2022-11-20T02:58:18;11.90;99.90
29185;DHT22;16233;47.964;-3.842;2022-11-20T03:00:19;11.90;99.90
29185;DHT22;16233;47.964;-3.842;2022-11-20T03:02:20;11.90;99.90
29185;DHT22;16233;47.964;-3.842;2022-11-20T03:04:21;11.90;99.90
29185;DHT22;16233;47.964;-3.842;2022-11-20T03:06:22;11.80;99.90
29185;DHT22;16233;47.964;-3.842;2022-11-20T03:08:23;11.80;99.90
29185;DHT22;16233;47.964;-3.842;2022-11-20T03:10:24;11.70;99.90
29185;DHT22;16233;47.964;-3.842;2022-11-20T03:12:26;11.60;99.90
29185;DHT22;16233;47.964;-3.842;2022-11-20T03:14:28;11.50;99.90
29185;DHT22;16233;47.964;-3.842;2022-11-20T03:16:31;11.50;99.90
29185;DHT22;16233;47.964;-3.842;2022-11-20T03:18:32;11.50;99.90
29185;DHT22;16233;47.964;-3.842;2022-11-20T03:20:33;11.40;99.90
29185;DHT22;16233;47.964;-3.842;2022-11-20T03:22:35;11.50;99.90
29185;DHT22;16233;47.964;-3.842;2022-11-20T03:24:36;11.40;99.90
29185;DHT22;16233;47.964;-3.842;2022-11-20T03:26:39;11.40;99.90
29185;DHT22;16233;47.964;-3.842;2022-11-20T03:28:40;11.30;99.90
29185;DHT22;16233;47.964;-3.842;2022-11-20T03:30:43;11.30;99.90
29185;DHT22;16233;47.964;-3.842;2022-11-20T03:32:44;11.30;99.90
29185;DHT22;16233;47.964;-3.842;2022-11-20T03:34:45;11.20;99.90
29185;DHT22;16233;47.964;-3.842;2022-11-20T03:36:46;11.20;99.90
29185;DHT22;16233;47.964;-3.842;2022-11-20T03:38:47;11.20;99.90
29185;DHT22;16233;47.964;-3.842;2022-11-20T03:40:48;11.10;99.90
29185;DHT22;16233;47.964;-3.842;2022-11-20T03:42:49;11.10;99.90
29185;DHT22;16233;47.964;-3.842;2022-11-20T03:44:50;11.00;99.90
29185;DHT22;16233;47.964;-3.842;2022-11-20T03:46:52;11.00;99.90
29185;DHT22;16233;47.964;-3.842;2022-11-20T03:48:54;11.00;99.90
29185;DHT22;16233;47.964;-3.842;2022-11-20T03:51:07;11.00;99.90
29185;DHT22;16233;47.964;-3.842;2022-11-20T03:53:08;11.00;99.90
29185;DHT22;16233;47.964;-3.842;2022-11-20T03:55:10;10.90;99.90
29185;DHT22;16233;47.964;-3.842;2022-11-20T03:57:11;10.90;99.90
29185;DHT22;16233;47.964;-3.842;2022-11-20T03:59:12;10.90;99.90
29185;DHT22;16233;47.964;-3.842;2022-11-20T04:01:14;10.80;99.90
29185;DHT22;16233;47.964;-3.842;2022-11-20T04:03:16;10.70;99.90
29185;DHT22;16233;47.964;-3.842;2022-11-20T04:05:17;10.70;99.90
29185;DHT22;16233;47.964;-3.842;2022-11-20T04:07:18;10.70;99.90
29185;DHT22;16233;47.964;-3.842;2022-11-20T04:09:19;10.60;99.90
29185;DHT22;16233;47.964;-3.842;2022-11-20T04:11:22;10.50;99.90
29185;DHT22;16233;47.964;-3.842;2022-11-20T04:13:23;10.50;99.90
29185;DHT22;16233;47.964;-3.842;2022-11-20T04:15:24;10.40;99.90
29185;DHT22;16233;47.964;-3.842;2022-11-20T04:17:25;10.40;99.90
29185;DHT22;16233;47.964;-3.842;2022-11-20T04:19:27;10.30;99.90
29185;DHT22;16233;47.964;-3.842;2022-11-20T04:21:28;10.30;99.90
29185;DHT22;16233;47.964;-3.842;2022-11-20T04:23:30;10.30;99.90
29185;DHT22;16233;47.964;-3.842;2022-11-20T04:25:31;10.20;99.90
29185;DHT22;16233;47.964;-3.842;2022-11-20T04:27:32;10.20;99.90
29185;DHT22;16233;47.964;-3.842;2022-11-20T04:29:33;10.10;99.90
29185;DHT22;16233;47.964;-3.842;2022-11-20T04:31:34;10.10;99.90
29185;DHT22;16233;47.964;-3.842;2022-11-20T04:33:36;10.10;99.90
29185;DHT22;16233;47.964;-3.842;2022-11-20T04:35:39;10.00;99.90
29185;DHT22;16233;47.964;-3.842;2022-11-20T04:37:40;10.00;99.90
29185;DHT22;16233;47.964;-3.842;2022-11-20T04:39:41;10.00;99.90
29185;DHT22;16233;47.964;-3.842;2022-11-20T04:41:42;10.00;99.90
29185;DHT22;16233;47.964;-3.842;2022-11-20T04:43:47;9.90;99.90
29185;DHT22;16233;47.964;-3.842;2022-11-20T04:45:50;9.90;99.90
29185;DHT22;16233;47.964;-3.842;2022-11-20T04:47:51;9.90;99.90
29185;DHT22;16233;47.964;-3.842;2022-11-20T04:49:53;9.90;99.90
29185;DHT22;16233;47.964;-3.842;2022-11-20T04:51:55;10.00;99.90
29185;DHT22;16233;47.964;-3.842;2022-11-20T04:53:56;10.00;99.90
29185;DHT22;16233;47.964;-3.842;2022-11-20T04:56:00;10.10;99.90
29185;DHT22;16233;47.964;-3.842;2022-11-20T04:58:01;10.10;99.90
29185;DHT22;16233;47.964;-3.842;2022-11-20T05:00:02;10.20;99.90
29185;DHT22;16233;47.964;-3.842;2022-11-20T05:02:03;10.20;99.90
29185;DHT22;16233;47.964;-3.842;2022-11-20T05:04:04;10.20;99.90
29185;DHT22;16233;47.964;-3.842;2022-11-20T05:06:06;10.20;99.90
29185;DHT22;16233;47.964;-3.842;2022-11-20T05:08:09;10.20;99.90
29185;DHT22;16233;47.964;-3.842;2022-11-20T05:10:10;10.20;99.90
29185;DHT22;16233;47.964;-3.842;2022-11-20T05:12:11;10.10;99.90
29185;DHT22;16233;47.964;-3.842;2022-11-20T05:14:12;10.10;99.90
29185;DHT22;16233;47.964;-3.842;2022-11-20T05:16:14;10.00;99.90
29185;DHT22;16233;47.964;-3.842;2022-11-20T05:18:15;9.90;99.90
29185;DHT22;16233;47.964;-3.842;2022-11-20T05:20:16;9.90;99.90
29185;DHT22;16233;47.964;-3.842;2022-11-20T05:22:17;9.80;99.90
29185;DHT22;16233;47.964;-3.842;2022-11-20T05:24:20;9.80;99.90
29185;DHT22;16233;47.964;-3.842;2022-11-20T05:26:22;9.70;99.90
29185;DHT22;16233;47.964;-3.842;2022-11-20T05:28:24;9.70;99.90
29185;DHT22;16233;47.964;-3.842;2022-11-20T05:30:29;9.70;99.90
29185;DHT22;16233;47.964;-3.842;2022-11-20T05:32:30;9.70;99.90
29185;DHT22;16233;47.964;-3.842;2022-11-20T05:34:31;9.80;99.90
29185;DHT22;16233;47.964;-3.842;2022-11-20T05:36:32;9.80;99.90
29185;DHT22;16233;47.964;-3.842;2022-11-20T05:38:33;9.80;99.90
29185;DHT22;16233;47.964;-3.842;2022-11-20T05:40:36;9.80;99.90
29185;DHT22;16233;47.964;-3.842;2022-11-20T05:42:37;9.90;99.90
29185;DHT22;16233;47.964;-3.842;2022-11-20T05:44:38;9.90;99.90
29185;DHT22;16233;47.964;-3.842;2022-11-20T05:46:39;9.90;99.90
29185;DHT22;16233;47.964;-3.842;2022-11-20T05:48:41;9.90;99.90
29185;DHT22;16233;47.964;-3.842;2022-11-20T05:50:42;9.90;99.90
29185;DHT22;16233;47.964;-3.842;2022-11-20T05:52:43;9.90;99.90
29185;DHT22;16233;47.964;-3.842;2022-11-20T05:54:44;9.80;99.90
29185;DHT22;16233;47.964;-3.842;2022-11-20T05:56:46;9.80;99.90
29185;DHT22;16233;47.964;-3.842;2022-11-20T05:58:48;9.80;99.90
29185;DHT22;16233;47.964;-3.842;2022-11-20T06:00:49;9.70;99.90
29185;DHT22;16233;47.964;-3.842;2022-11-20T06:02:50;9.70;99.90
29185;DHT22;16233;47.964;-3.842;2022-11-20T06:04:51;9.70;99.90
29185;DHT22;16233;47.964;-3.842;2022-11-20T06:06:52;9.60;99.90
29185;DHT22;16233;47.964;-3.842;2022-11-20T06:08:54;9.60;99.90
29185;DHT22;16233;47.964;-3.842;2022-11-20T06:10:55;9.60;99.90
29185;DHT22;16233;47.964;-3.842;2022-11-20T06:12:58;9.60;99.90
29185;DHT22;16233;47.964;-3.842;2022-11-20T06:14:59;9.60;99.90
29185;DHT22;16233;47.964;-3.842;2022-11-20T06:17:00;9.60;99.90
29185;DHT22;16233;47.964;-3.842;2022-11-20T06:19:01;9.60;99.90
29185;DHT22;16233;47.964;-3.842;2022-11-20T06:21:05;9.60;99.90
29185;DHT22;16233;47.964;-3.842;2022-11-20T06:23:06;9.60;99.90
29185;DHT22;16233;47.964;-3.842;2022-11-20T06:25:07;9.50;99.90
29185;DHT22;16233;47.964;-3.842;2022-11-20T06:27:09;9.50;99.90
29185;DHT22;16233;47.964;-3.842;2022-11-20T06:29:11;9.40;99.90
29185;DHT22;16233;47.964;-3.842;2022-11-20T06:31:14;9.40;99.90
29185;DHT22;16233;47.964;-3.842;2022-11-20T06:33:15;9.30;99.90
29185;DHT22;16233;47.964;-3.842;2022-11-20T06:35:16;9.30;99.90
29185;DHT22;16233;47.964;-3.842;2022-11-20T06:37:17;9.20;99.90
29185;DHT22;16233;47.964;-3.842;2022-11-20T06:39:18;9.20;99.90
29185;DHT22;16233;47.964;-3.842;2022-11-20T06:41:20;9.20;99.90
29185;DHT22;16233;47.964;-3.842;2022-11-20T06:43:22;9.10;99.90
29185;DHT22;16233;47.964;-3.842;2022-11-20T06:45:25;9.10;99.90
29185;DHT22;16233;47.964;-3.842;2022-11-20T06:47:25;9.10;99.90
29185;DHT22;16233;47.964;-3.842;2022-11-20T06:49:26;9.00;99.90
29185;DHT22;16233;47.964;-3.842;2022-11-20T06:51:27;8.90;99.90
29185;DHT22;16233;47.964;-3.842;2022-11-20T06:53:28;8.90;99.90
29185;DHT22;16233;47.964;-3.842;2022-11-20T06:55:30;8.90;99.90
29185;DHT22;16233;47.964;-3.842;2022-11-20T06:57:31;8.80;99.90
29185;DHT22;16233;47.964;-3.842;2022-11-20T06:59:32;8.80;99.90
29185;DHT22;16233;47.964;-3.842;2022-11-20T07:01:35;8.80;99.90
29185;DHT22;16233;47.964;-3.842;2022-11-20T07:03:36;8.80;99.90
29185;DHT22;16233;47.964;-3.842;2022-11-20T07:05:37;8.70;99.90
29185;DHT22;16233;47.964;-3.842;2022-11-20T07:07:38;8.60;99.90
29185;DHT22;16233;47.964;-3.842;2022-11-20T07:09:39;8.60;99.90
29185;DHT22;16233;47.964;-3.842;2022-11-20T07:11:40;8.60;99.90
29185;DHT22;16233;47.964;-3.842;2022-11-20T07:13:41;8.60;99.90
29185;DHT22;16233;47.964;-3.842;2022-11-20T07:15:42;8.50;99.90
29185;DHT22;16233;47.964;-3.842;2022-11-20T07:17:45;8.50;99.90
29185;DHT22;16233;47.964;-3.842;2022-11-20T07:19:46;8.40;99.90
29185;DHT22;16233;47.964;-3.842;2022-11-20T07:21:47;8.40;99.90
29185;DHT22;16233;47.964;-3.842;2022-11-20T07:23:48;8.40;99.90
29185;DHT22;16233;47.964;-3.842;2022-11-20T07:25:49;8.40;99.90
29185;DHT22;16233;47.964;-3.842;2022-11-20T07:27:53;8.40;99.90
29185;DHT22;16233;47.964;-3.842;2022-11-20T07:29:57;8.30;99.90
29185;DHT22;16233;47.964;-3.842;2022-11-20T07:31:58;8.30;99.90
29185;DHT22;16233;47.964;-3.842;2022-11-20T07:34:00;8.30;99.90
29185;DHT22;16233;47.964;-3.842;2022-11-20T07:36:01;8.20;99.90
29185;DHT22;16233;47.964;-3.842;2022-11-20T07:38:03;8.20;99.90
29185;DHT22;16233;47.964;-3.842;2022-11-20T07:40:04;8.20;99.90
29185;DHT22;16233;47.964;-3.842;2022-11-20T07:42:06;8.20;99.90
29185;DHT22;16233;47.964;-3.842;2022-11-20T07:44:07;8.20;99.90
29185;DHT22;16233;47.964;-3.842;2022-11-20T07:46:08;8.20;99.90
29185;DHT22;16233;47.964;-3.842;2022-11-20T07:48:09;8.20;99.90
29185;DHT22;16233;47.964;-3.842;2022-11-20T07:50:12;8.20;99.90
29185;DHT22;16233;47.964;-3.842;2022-11-20T07:52:13;8.20;99.90
29185;DHT22;16233;47.964;-3.842;2022-11-20T07:54:14;8.30;99.90
29185;DHT22;16233;47.964;-3.842;2022-11-20T07:56:15;8.20;99.90
29185;DHT22;16233;47.964;-3.842;2022-11-20T07:58:16;8.30;99.90
29185;DHT22;16233;47.964;-3.842;2022-11-20T08:00:19;8.40;99.90
29185;DHT22;16233;47.964;-3.842;2022-11-20T08:02:20;8.40;99.90
29185;DHT22;16233;47.964;-3.842;2022-11-20T08:04:21;8.40;99.90
29185;DHT22;16233;47.964;-3.842;2022-11-20T08:06:24;8.50;99.90
29185;DHT22;16233;47.964;-3.842;2022-11-20T08:08:25;8.60;99.90
29185;DHT22;16233;47.964;-3.842;2022-11-20T08:10:26;8.60;99.90
29185;DHT22;16233;47.964;-3.842;2022-11-20T08:12:26;8.70;99.90
29185;DHT22;16233;47.964;-3.842;2022-11-20T08:14:27;8.70;99.90
29185;DHT22;16233;47.964;-3.842;2022-11-20T08:16:29;8.70;99.90
29185;DHT22;16233;47.964;-3.842;2022-11-20T08:18:30;8.80;99.90
29185;DHT22;16233;47.964;-3.842;2022-11-20T08:20:31;8.80;99.90
29185;DHT22;16233;47.964;-3.842;2022-11-20T08:22:33;8.80;99.90
29185;DHT22;16233;47.964;-3.842;2022-11-20T08:24:34;8.90;99.90
29185;DHT22;16233;47.964;-3.842;2022-11-20T08:26:36;8.90;99.90
29185;DHT22;16233;47.964;-3.842;2022-11-20T08:28:37;8.90;99.90
29185;DHT22;16233;47.964;-3.842;2022-11-20T08:30:38;8.90;99.90
29185;DHT22;16233;47.964;-3.842;2022-11-20T08:32:39;8.90;99.90
29185;DHT22;16233;47.964;-3.842;2022-11-20T08:34:40;8.90;99.90
29185;DHT22;16233;47.964;-3.842;2022-11-20T08:36:41;8.80;99.90
29185;DHT22;16233;47.964;-3.842;2022-11-20T08:38:47;8.80;99.90
29185;DHT22;16233;47.964;-3.842;2022-11-20T08:40:48;8.90;99.90
29185;DHT22;16233;47.964;-3.842;2022-11-20T08:42:49;9.00;99.90
29185;DHT22;16233;47.964;-3.842;2022-11-20T08:44:51;9.10;99.90
29185;DHT22;16233;47.964;-3.842;2022-11-20T08:46:52;9.20;99.90
29185;DHT22;16233;47.964;-3.842;2022-11-20T08:48:53;9.30;99.90
29185;DHT22;16233;47.964;-3.842;2022-11-20T08:50:58;9.40;99.90
29185;DHT22;16233;47.964;-3.842;2022-11-20T08:53:02;9.50;99.90
29185;DHT22;16233;47.964;-3.842;2022-11-20T08:55:06;9.60;99.90
29185;DHT22;16233;47.964;-3.842;2022-11-20T08:57:08;9.70;99.90
29185;DHT22;16233;47.964;-3.842;2022-11-20T08:59:09;9.70;99.90
29185;DHT22;16233;47.964;-3.842;2022-11-20T09:01:10;9.70;99.90
29185;DHT22;16233;47.964;-3.842;2022-11-20T09:03:11;9.80;99.90
29185;DHT22;16233;47.964;-3.842;2022-11-20T09:05:13;9.80;99.90
29185;DHT22;16233;47.964;-3.842;2022-11-20T09:07:13;9.80;99.90
29185;DHT22;16233;47.964;-3.842;2022-11-20T09:09:15;9.80;99.90
29185;DHT22;16233;47.964;-3.842;2022-11-20T09:11:17;9.80;99.90
29185;DHT22;16233;47.964;-3.842;2022-11-20T09:13:19;9.90;99.90
29185;DHT22;16233;47.964;-3.842;2022-11-20T09:15:20;9.90;99.90
29185;DHT22;16233;47.964;-3.842;2022-11-20T09:17:21;9.90;99.90
29185;DHT22;16233;47.964;-3.842;2022-11-20T09:19:23;9.90;99.90
29185;DHT22;16233;47.964;-3.842;2022-11-20T09:21:24;9.90;99.90
29185;DHT22;16233;47.964;-3.842;2022-11-20T09:23:25;9.90;99.90
29185;DHT22;16233;47.964;-3.842;2022-11-20T09:25:26;10.00;99.90
29185;DHT22;16233;47.964;-3.842;2022-11-20T09:27:29;10.00;99.90
29185;DHT22;16233;47.964;-3.842;2022-11-20T09:29:30;10.10;99.90
29185;DHT22;16233;47.964;-3.842;2022-11-20T09:31:31;10.10;99.90
29185;DHT22;16233;47.964;-3.842;2022-11-20T09:33:32;10.10;99.90
29185;DHT22;16233;47.964;-3.842;2022-11-20T09:35:33;10.10;99.90
29185;DHT22;16233;47.964;-3.842;2022-11-20T09:37:34;10.20;99.90
29185;DHT22;16233;47.964;-3.842;2022-11-20T09:39:35;10.30;99.90
29185;DHT22;16233;47.964;-3.842;2022-11-20T09:41:56;10.30;99.90
29185;DHT22;16233;47.964;-3.842;2022-11-20T09:44:07;10.40;99.90
29185;DHT22;16233;47.964;-3.842;2022-11-20T09:46:17;10.50;99.90
29185;DHT22;16233;47.964;-3.842;2022-11-20T09:48:32;10.60;99.90
29185;DHT22;16233;47.964;-3.842;2022-11-20T09:50:40;10.70;99.90
29185;DHT22;16233;47.964;-3.842;2022-11-20T09:52:46;10.80;99.90
29185;DHT22;16233;47.964;-3.842;2022-11-20T09:54:50;10.90;99.90
29185;DHT22;16233;47.964;-3.842;2022-11-20T09:56:55;10.90;99.90
29185;DHT22;16233;47.964;-3.842;2022-11-20T09:59:02;11.00;99.90
29185;DHT22;16233;47.964;-3.842;2022-11-20T10:01:10;11.10;99.90
29185;DHT22;16233;47.964;-3.842;2022-11-20T10:03:16;11.20;99.90
29185;DHT22;16233;47.964;-3.842;2022-11-20T10:05:20;11.30;99.90
29185;DHT22;16233;47.964;-3.842;2022-11-20T10:07:24;11.30;99.90
29185;DHT22;16233;47.964;-3.842;2022-11-20T10:09:30;11.40;99.90
29185;DHT22;16233;47.964;-3.842;2022-11-20T10:11:40;11.50;99.90
29185;DHT22;16233;47.964;-3.842;2022-11-20T10:13:51;11.60;99.90
29185;DHT22;16233;47.964;-3.842;2022-11-20T10:16:15;11.60;99.90
29185;DHT22;16233;47.964;-3.842;2022-11-20T10:18:27;11.60;99.90
29185;DHT22;16233;47.964;-3.842;2022-11-20T10:20:40;11.60;99.90
29185;DHT22;16233;47.964;-3.842;2022-11-20T10:22:51;11.60;99.90
29185;DHT22;16233;47.964;-3.842;2022-11-20T10:24:58;11.70;99.90
29185;DHT22;16233;47.964;-3.842;2022-11-20T10:27:17;11.80;99.90
29185;DHT22;16233;47.964;-3.842;2022-11-20T10:29:27;11.80;99.90
29185;DHT22;16233;47.964;-3.842;2022-11-20T10:31:34;11.90;99.90
29185;DHT22;16233;47.964;-3.842;2022-11-20T10:33:39;12.00;99.90
29185;DHT22;16233;47.964;-3.842;2022-11-20T10:35:43;12.10;99.90
29185;DHT22;16233;47.964;-3.842;2022-11-20T10:37:48;12.20;99.90
29185;DHT22;16233;47.964;-3.842;2022-11-20T10:39:54;12.30;99.90
29185;DHT22;16233;47.964;-3.842;2022-11-20T10:42:03;12.30;99.90
29185;DHT22;16233;47.964;-3.842;2022-11-20T10:44:14;12.40;99.90
29185;DHT22;16233;47.964;-3.842;2022-11-20T10:46:18;12.50;99.90
29185;DHT22;16233;47.964;-3.842;2022-11-20T10:48:24;12.70;99.90
29185;DHT22;16233;47.964;-3.842;2022-11-20T10:50:25;12.90;99.90
29185;DHT22;16233;47.964;-3.842;2022-11-20T10:52:33;13.00;99.90
29185;DHT22;16233;47.964;-3.842;2022-11-20T10:54:53;13.10;99.90
29185;DHT22;16233;47.964;-3.842;2022-11-20T10:57:00;13.30;99.90
29185;DHT22;16233;47.964;-3.842;2022-11-20T10:59:19;13.30;99.90
29185;DHT22;16233;47.964;-3.842;2022-11-20T11:01:26;13.40;99.90
29185;DHT22;16233;47.964;-3.842;2022-11-20T11:03:31;13.50;99.90
29185;DHT22;16233;47.964;-3.842;2022-11-20T11:05:37;13.60;99.90
29185;DHT22;16233;47.964;-3.842;2022-11-20T11:07:44;13.70;99.90
29185;DHT22;16233;47.964;-3.842;2022-11-20T11:09:49;13.70;99.90
29185;DHT22;16233;47.964;-3.842;2022-11-20T11:11:50;13.80;99.90
29185;DHT22;16233;47.964;-3.842;2022-11-20T11:13:52;13.80;99.90
29185;DHT22;16233;47.964;-3.842;2022-11-20T11:15:53;13.70;99.90
29185;DHT22;16233;47.964;-3.842;2022-11-20T11:17:55;13.70;99.90
29185;DHT22;16233;47.964;-3.842;2022-11-20T11:20:16;13.70;99.90
29185;DHT22;16233;47.964;-3.842;2022-11-20T11:22:18;13.80;99.90
29185;DHT22;16233;47.964;-3.842;2022-11-20T11:24:21;13.90;99.90
29185;DHT22;16233;47.964;-3.842;2022-11-20T11:26:23;13.80;99.90
29185;DHT22;16233;47.964;-3.842;2022-11-20T11:28:25;13.70;99.90
29185;DHT22;16233;47.964;-3.842;2022-11-20T11:30:28;13.70;99.90
29185;DHT22;16233;47.964;-3.842;2022-11-20T11:32:29;13.70;99.90
29185;DHT22;16233;47.964;-3.842;2022-11-20T11:34:30;13.70;99.90
29185;DHT22;16233;47.964;-3.842;2022-11-20T11:36:34;13.70;99.90
29185;DHT22;16233;47.964;-3.842;2022-11-20T11:38:37;13.60;99.90
29185;DHT22;16233;47.964;-3.842;2022-11-20T11:40:40;13.60;99.90
29185;DHT22;16233;47.964;-3.842;2022-11-20T11:42:42;13.60;99.90
29185;DHT22;16233;47.964;-3.842;2022-11-20T11:44:45;13.50;99.90
29185;DHT22;16233;47.964;-3.842;2022-11-20T11:46:53;13.50;99.90
29185;DHT22;16233;47.964;-3.842;2022-11-20T11:48:56;13.40;99.90
29185;DHT22;16233;47.964;-3.842;2022-11-20T11:50:57;13.40;99.90
29185;DHT22;16233;47.964;-3.842;2022-11-20T11:53:08;13.20;99.90
29185;DHT22;16233;47.964;-3.842;2022-11-20T11:55:14;13.20;99.90
29185;DHT22;16233;47.964;-3.842;2022-11-20T11:57:23;13.10;99.90
29185;DHT22;16233;47.964;-3.842;2022-11-20T11:59:28;12.90;99.90
29185;DHT22;16233;47.964;-3.842;2022-11-20T12:01:40;13.10;99.90
29185;DHT22;16233;47.964;-3.842;2022-11-20T12:03:50;13.30;99.90
29185;DHT22;16233;47.964;-3.842;2022-11-20T12:05:58;13.60;99.90
29185;DHT22;16233;47.964;-3.842;2022-11-20T12:08:05;13.90;99.90
29185;DHT22;16233;47.964;-3.842;2022-11-20T12:10:16;14.10;99.90
29185;DHT22;16233;47.964;-3.842;2022-11-20T12:12:27;14.30;99.90
29185;DHT22;16233;47.964;-3.842;2022-11-20T12:14:33;14.50;99.90
29185;DHT22;16233;47.964;-3.842;2022-11-20T12:16:36;14.80;99.90
29185;DHT22;16233;47.964;-3.842;2022-11-20T12:18:39;15.00;99.90
29185;DHT22;16233;47.964;-3.842;2022-11-20T12:20:44;15.30;99.90
29185;DHT22;16233;47.964;-3.842;2022-11-20T12:22:53;15.30;99.90
29185;DHT22;16233;47.964;-3.842;2022-11-20T12:25:04;15.30;99.90
29185;DHT22;16233;47.964;-3.842;2022-11-20T12:27:25;15.30;99.90
29185;DHT22;16233;47.964;-3.842;2022-11-20T12:29:40;15.10;99.90
29185;DHT22;16233;47.964;-3.842;2022-11-20T12:31:56;15.10;99.90
29185;DHT22;16233;47.964;-3.842;2022-11-20T12:34:25;15.10;99.90
29185;DHT22;16233;47.964;-3.842;2022-11-20T12:36:39;15.20;99.90
29185;DHT22;16233;47.964;-3.842;2022-11-20T12:39:05;15.40;99.90
29185;DHT22;16233;47.964;-3.842;2022-11-20T12:41:14;15.60;99.90
29185;DHT22;16233;47.964;-3.842;2022-11-20T12:43:20;15.90;99.90
29185;DHT22;16233;47.964;-3.842;2022-11-20T12:45:37;16.10;99.90
29185;DHT22;16233;47.964;-3.842;2022-11-20T12:48:03;16.10;99.90
29185;DHT22;16233;47.964;-3.842;2022-11-20T12:50:16;16.00;99.90